Time,TemperatureF,DewpointF,PressureIn,WindDirection,WindDirectionDegrees,WindSpeedMPH,WindSpeedGustMPH,Humidity,HourlyPrecipIn,Conditions,Clouds,dailyrainin,SoftwareType,DateUTC
2013-05-11 00:02:00,41.9,33.2,30.18,ENE,57,1.0,2.0,71,0.00,,,0.00,Wunderground PWS Mod,2013-05-11 06:02:00,
2013-05-11 00:07:00,41.3,33.0,30.18,NE,51,2.0,3.0,72,0.00,,,0.00,Wunderground PWS Mod,2013-05-11 06:07:00,
2013-05-11 00:12:00,41.5,32.4,30.18,NE,41,2.0,2.0,70,0.00,,,0.00,Wunderground PWS Mod,2013-05-11 06:12:00,
2013-05-11 00:18:00,42.9,31.9,30.19,NE,45,2.0,3.0,65,0.00,,,0.00,Wunderground PWS Mod,2013-05-11 06:18:00,
2013-05-11 00:24:00,43.6,31.8,30.19,ENE,68,2.0,3.0,63,0.00,,,0.00,Wunderground PWS Mod,2013-05-11 06:24:00,
2013-05-11 00:29:00,44.1,31.5,30.19,NE,55,2.0,2.0,61,0.00,,,0.00,Wunderground PWS Mod,2013-05-11 06:29:00,
2013-05-11 00:35:00,43.3,31.5,30.18,NE,46,2.0,2.0,63,0.00,,,0.00,Wunderground PWS Mod,2013-05-11 06:35:00,
2013-05-11 00:41:00,42.2,31.3,30.18,ENE,60,1.0,2.0,65,0.00,,,0.00,Wunderground PWS Mod,2013-05-11 06:41:00,
2013-05-11 00:46:00,41.6,31.8,30.19,ENE,77,2.0,2.0,68,0.00,,,0.00,Wunderground PWS Mod,2013-05-11 06:46:00,
2013-05-11 00:52:00,41.2,32.2,30.19,ENE,77,1.0,2.0,70,0.00,,,0.00,Wunderground PWS Mod,2013-05-11 06:52:00,
2013-05-11 00:57:00,41.2,32.5,30.19,ENE,77,1.0,1.0,71,0.00,,,0.00,Wunderground PWS Mod,2013-05-11 06:57:00,
2013-05-11 01:02:00,41.8,32.7,30.19,ENE,78,2.0,2.0,70,0.00,,,0.00,Wunderground PWS Mod,2013-05-11 07:02:00,
2013-05-11 01:08:00,41.9,32.8,30.19,East,90,1.0,2.0,70,0.00,,,0.00,Wunderground PWS Mod,2013-05-11 07:08:00,
2013-05-11 01:13:00,42.3,32.8,30.19,East,84,2.0,3.0,69,0.00,,,0.00,Wunderground PWS Mod,2013-05-11 07:13:00,
2013-05-11 01:18:00,42.3,32.8,30.19,East,90,2.0,3.0,69,0.00,,,0.00,Wunderground PWS Mod,2013-05-11 07:18:00,
2013-05-11 01:24:00,41.5,32.8,30.19,ENE,75,3.0,3.0,71,0.00,,,0.00,Wunderground PWS Mod,2013-05-11 07:24:00,
2013-05-11 01:29:00,41.5,32.8,30.19,NE,45,2.0,3.0,71,0.00,,,0.00,Wunderground PWS Mod,2013-05-11 07:29:00,
2013-05-11 01:34:00,41.6,32.5,30.19,NE,51,3.0,3.0,70,0.00,,,0.00,Wunderground PWS Mod,2013-05-11 07:34:00,
2013-05-11 01:39:00,42.1,32.7,30.19,NE,52,3.0,3.0,69,0.00,,,0.00,Wunderground PWS Mod,2013-05-11 07:39:00,
2013-05-11 01:45:00,42.6,32.8,30.18,NE,55,1.0,2.0,68,0.00,,,0.00,Wunderground PWS Mod,2013-05-11 07:45:00,
2013-05-11 01:50:00,42.6,32.4,30.18,ENE,70,2.0,2.0,67,0.00,,,0.00,Wunderground PWS Mod,2013-05-11 07:50:00,
2013-05-11 01:56:00,42.5,32.7,30.18,ENE,68,1.0,2.0,68,0.00,,,0.00,Wunderground PWS Mod,2013-05-11 07:56:00,
2013-05-11 02:01:00,42.5,32.7,30.18,East,85,1.0,1.0,68,0.00,,,0.00,Wunderground PWS Mod,2013-05-11 08:01:00,
2013-05-11 02:06:00,42.8,32.6,30.18,East,79,2.0,2.0,67,0.00,,,0.00,Wunderground PWS Mod,2013-05-11 08:06:00,
2013-05-11 02:11:00,42.9,32.3,30.18,East,79,1.0,3.0,66,0.00,,,0.00,Wunderground PWS Mod,2013-05-11 08:11:00,
2013-05-11 02:16:00,42.9,32.3,30.18,ENE,67,2.0,2.0,66,0.00,,,0.00,Wunderground PWS Mod,2013-05-11 08:16:00,
2013-05-11 02:21:00,42.8,32.6,30.18,ENE,57,2.0,3.0,67,0.00,,,0.00,Wunderground PWS Mod,2013-05-11 08:21:00,
2013-05-11 02:26:00,42.9,32.3,30.18,ENE,72,2.0,3.0,66,0.00,,,0.00,Wunderground PWS Mod,2013-05-11 08:26:00,
2013-05-11 02:31:00,42.5,32.3,30.18,ENE,74,2.0,3.0,67,0.00,,,0.00,Wunderground PWS Mod,2013-05-11 08:31:00,
2013-05-11 02:36:00,42.3,32.5,30.18,ENE,67,1.0,3.0,68,0.00,,,0.00,Wunderground PWS Mod,2013-05-11 08:36:00,
2013-05-11 02:41:00,42.1,32.3,30.18,ENE,63,2.0,2.0,68,0.00,,,0.00,Wunderground PWS Mod,2013-05-11 08:41:00,
2013-05-11 02:46:00,41.6,32.2,30.18,ENE,69,2.0,3.0,69,0.00,,,0.00,Wunderground PWS Mod,2013-05-11 08:46:00,
2013-05-11 02:51:00,41.2,32.2,30.18,ENE,71,3.0,3.0,70,0.00,,,0.00,Wunderground PWS Mod,2013-05-11 08:51:00,
2013-05-11 02:56:00,41.2,32.2,30.18,ENE,67,1.0,3.0,70,0.00,,,0.00,Wunderground PWS Mod,2013-05-11 08:56:00,
2013-05-11 03:01:00,41.2,32.2,30.20,ENE,62,2.0,4.0,70,0.00,,,0.00,Wunderground PWS Mod,2013-05-11 09:01:00,
2013-05-11 03:06:00,41.1,31.7,30.20,ENE,58,3.0,3.0,69,0.00,,,0.00,Wunderground PWS Mod,2013-05-11 09:06:00,
2013-05-11 03:11:00,40.6,31.6,30.20,ENE,62,3.0,4.0,70,0.00,,,0.00,Wunderground PWS Mod,2013-05-11 09:11:00,
2013-05-11 03:16:00,40.5,31.5,30.20,ENE,70,2.0,5.0,70,0.00,,,0.00,Wunderground PWS Mod,2013-05-11 09:16:00,
2013-05-11 03:21:00,40.5,31.8,30.20,ENE,65,4.0,4.0,71,0.00,,,0.00,Wunderground PWS Mod,2013-05-11 09:21:00,
2013-05-11 03:26:00,41.1,32.1,30.20,NE,56,3.0,5.0,70,0.00,,,0.00,Wunderground PWS Mod,2013-05-11 09:26:00,
2013-05-11 03:31:00,41.3,31.9,30.20,ENE,62,3.0,5.0,69,0.00,,,0.00,Wunderground PWS Mod,2013-05-11 09:31:00,
2013-05-11 03:36:00,41.3,31.9,30.20,ENE,70,3.0,3.0,69,0.00,,,0.00,Wunderground PWS Mod,2013-05-11 09:36:00,
2013-05-11 03:41:00,41.5,32.1,30.20,NE,53,2.0,4.0,69,0.00,,,0.00,Wunderground PWS Mod,2013-05-11 09:41:00,
2013-05-11 03:46:00,41.6,31.8,30.21,NE,45,2.0,4.0,68,0.00,,,0.00,Wunderground PWS Mod,2013-05-11 09:46:00,
2013-05-11 03:51:00,41.8,32.0,30.21,NE,56,2.0,3.0,68,0.00,,,0.00,Wunderground PWS Mod,2013-05-11 09:51:00,
2013-05-11 03:56:00,41.5,31.7,30.21,NE,51,2.0,3.0,68,0.00,,,0.00,Wunderground PWS Mod,2013-05-11 09:56:00,
2013-05-11 04:01:00,41.2,31.4,30.22,NE,51,2.0,3.0,68,0.00,,,0.00,Wunderground PWS Mod,2013-05-11 10:01:00,
2013-05-11 04:06:00,40.9,31.5,30.22,NE,44,2.0,3.0,69,0.00,,,0.00,Wunderground PWS Mod,2013-05-11 10:06:00,
2013-05-11 04:11:00,40.9,31.5,30.22,NE,49,1.0,3.0,69,0.00,,,0.00,Wunderground PWS Mod,2013-05-11 10:11:00,
2013-05-11 04:16:00,40.6,31.2,30.26,NE,50,3.0,3.0,69,0.00,,,0.00,Wunderground PWS Mod,2013-05-11 10:16:00,
2013-05-11 04:21:00,40.3,31.3,30.26,ENE,64,4.0,4.0,70,0.00,,,0.00,Wunderground PWS Mod,2013-05-11 10:21:00,
2013-05-11 04:26:00,40.2,31.2,30.26,ENE,65,2.0,4.0,70,0.00,,,0.00,Wunderground PWS Mod,2013-05-11 10:26:00,
2013-05-11 04:31:00,40.2,31.5,30.26,NE,51,3.0,3.0,71,0.00,,,0.00,Wunderground PWS Mod,2013-05-11 10:31:00,
2013-05-11 04:36:00,40.1,31.4,30.26,ENE,64,2.0,3.0,71,0.00,,,0.00,Wunderground PWS Mod,2013-05-11 10:36:00,
2013-05-11 04:41:00,39.9,31.3,30.26,NE,49,2.0,4.0,71,0.00,,,0.00,Wunderground PWS Mod,2013-05-11 10:41:00,
2013-05-11 04:46:00,39.8,31.5,30.26,ENE,58,1.0,2.0,72,0.00,,,0.00,Wunderground PWS Mod,2013-05-11 10:46:00,
2013-05-11 04:51:00,39.5,31.2,30.26,ENE,77,2.0,2.0,72,0.00,,,0.00,Wunderground PWS Mod,2013-05-11 10:51:00,
2013-05-11 04:56:00,38.9,31.0,30.26,NE,47,2.0,2.0,73,0.00,,,0.00,Wunderground PWS Mod,2013-05-11 10:56:00,
2013-05-11 05:01:00,38.5,30.9,30.28,NE,47,1.0,2.0,74,0.00,,,0.00,Wunderground PWS Mod,2013-05-11 11:01:00,
2013-05-11 05:06:00,38.5,31.3,30.28,NE,47,1.0,3.0,75,0.00,,,0.00,Wunderground PWS Mod,2013-05-11 11:06:00,
2013-05-11 05:11:00,38.8,31.6,30.28,NE,43,2.0,3.0,75,0.00,,,0.00,Wunderground PWS Mod,2013-05-11 11:11:00,
2013-05-11 05:16:00,38.8,31.6,30.26,NE,39,2.0,2.0,75,0.00,,,0.00,Wunderground PWS Mod,2013-05-11 11:16:00,
2013-05-11 05:21:00,38.6,31.4,30.26,NE,39,1.0,2.0,75,0.00,,,0.00,Wunderground PWS Mod,2013-05-11 11:21:00,
2013-05-11 05:26:00,38.5,31.3,30.26,NE,39,1.0,2.0,75,0.00,,,0.00,Wunderground PWS Mod,2013-05-11 11:26:00,
2013-05-11 05:31:00,38.5,31.6,30.27,NE,39,1.0,2.0,76,0.00,,,0.00,Wunderground PWS Mod,2013-05-11 11:31:00,
2013-05-11 05:36:00,38.5,31.3,30.27,NE,37,2.0,3.0,75,0.00,,,0.00,Wunderground PWS Mod,2013-05-11 11:36:00,
2013-05-11 05:41:00,38.3,31.4,30.27,NE,43,2.0,4.0,76,0.00,,,0.00,Wunderground PWS Mod,2013-05-11 11:41:00,
2013-05-11 05:47:00,38.2,31.3,30.28,NE,42,2.0,3.0,76,0.00,,,0.00,Wunderground PWS Mod,2013-05-11 11:47:00,
2013-05-11 05:52:00,38.2,31.3,30.28,NE,41,1.0,2.0,76,0.00,,,0.00,Wunderground PWS Mod,2013-05-11 11:52:00,
2013-05-11 05:57:00,37.9,31.0,30.28,NE,39,2.0,3.0,76,0.00,,,0.00,Wunderground PWS Mod,2013-05-11 11:57:00,
2013-05-11 06:02:00,37.8,31.2,30.28,NE,38,2.0,3.0,77,0.00,,,0.00,Wunderground PWS Mod,2013-05-11 12:02:00,
2013-05-11 06:03:00,37.6,31.0,30.28,NE,45,2.0,3.0,77,0.00,,,0.00,Wunderground PWS Mod,2013-05-11 12:03:00,
2013-05-11 06:07:00,37.6,31.0,30.28,NE,38,1.0,3.0,77,0.00,,,0.00,Wunderground PWS Mod,2013-05-11 12:07:00,
2013-05-11 06:12:00,37.5,31.3,30.28,NE,38,2.0,3.0,78,0.00,,,0.00,Wunderground PWS Mod,2013-05-11 12:12:00,
2013-05-11 06:17:00,37.3,31.1,30.30,NE,38,2.0,3.0,78,0.00,,,0.00,Wunderground PWS Mod,2013-05-11 12:17:00,
2013-05-11 06:22:00,37.2,31.0,30.30,NE,38,1.0,3.0,78,0.00,,,0.00,Wunderground PWS Mod,2013-05-11 12:22:00,
2013-05-11 06:27:00,37.2,31.0,30.30,NE,38,1.0,2.0,78,0.00,,,0.00,Wunderground PWS Mod,2013-05-11 12:27:00,
2013-05-11 06:32:00,37.3,31.4,30.30,NE,38,2.0,2.0,79,0.00,,,0.00,Wunderground PWS Mod,2013-05-11 12:32:00,
2013-05-11 06:37:00,37.6,31.7,30.30,NE,41,1.0,3.0,79,0.00,,,0.00,Wunderground PWS Mod,2013-05-11 12:37:00,
2013-05-11 06:42:00,38.0,31.7,30.30,NE,42,2.0,2.0,78,0.00,,,0.00,Wunderground PWS Mod,2013-05-11 12:42:00,
2013-05-11 06:47:00,38.5,32.2,30.29,NE,46,2.0,3.0,78,0.00,,,0.00,Wunderground PWS Mod,2013-05-11 12:47:00,
2013-05-11 06:52:00,38.8,32.5,30.29,NE,46,2.0,2.0,78,0.00,,,0.00,Wunderground PWS Mod,2013-05-11 12:52:00,
2013-05-11 06:57:00,39.6,33.3,30.29,NE,44,2.0,3.0,78,0.00,,,0.00,Wunderground PWS Mod,2013-05-11 12:57:00,
2013-05-11 07:02:00,40.8,33.8,30.28,NE,45,4.0,4.0,76,0.00,,,0.00,Wunderground PWS Mod,2013-05-11 13:02:00,
2013-05-11 07:07:00,41.8,34.1,30.28,ENE,61,2.0,3.0,74,0.00,,,0.00,Wunderground PWS Mod,2013-05-11 13:07:00,
2013-05-11 07:12:00,42.8,35.1,30.28,NE,51,2.0,2.0,74,0.00,,,0.00,Wunderground PWS Mod,2013-05-11 13:12:00,
2013-05-11 07:17:00,43.9,35.8,30.29,ENE,57,1.0,4.0,73,0.00,,,0.00,Wunderground PWS Mod,2013-05-11 13:17:00,
2013-05-11 07:22:00,44.8,36.0,30.29,ENE,66,3.0,4.0,71,0.00,,,0.00,Wunderground PWS Mod,2013-05-11 13:22:00,
2013-05-11 07:27:00,45.8,36.6,30.29,ENE,77,1.0,4.0,70,0.00,,,0.00,Wunderground PWS Mod,2013-05-11 13:27:00,
2013-05-11 07:32:00,46.7,36.3,30.26,East,88,0.0,3.0,67,0.00,,,0.00,Wunderground PWS Mod,2013-05-11 13:32:00,
2013-05-11 07:37:00,47.4,37.0,30.26,ENE,60,1.0,3.0,67,0.00,,,0.00,Wunderground PWS Mod,2013-05-11 13:37:00,
2013-05-11 07:42:00,48.0,36.8,30.26,ENE,59,2.0,2.0,65,0.00,,,0.00,Wunderground PWS Mod,2013-05-11 13:42:00,
2013-05-11 07:47:00,48.6,37.0,30.25,ENE,68,3.0,3.0,64,0.00,,,0.00,Wunderground PWS Mod,2013-05-11 13:47:00,
2013-05-11 07:52:00,48.8,35.9,30.25,NE,46,2.0,3.0,61,0.00,,,0.00,Wunderground PWS Mod,2013-05-11 13:52:00,
2013-05-11 07:57:00,49.1,35.8,30.25,NE,46,2.0,2.0,60,0.00,,,0.00,Wunderground PWS Mod,2013-05-11 13:57:00,
2013-05-11 08:02:00,49.9,35.3,30.25,NE,47,1.0,2.0,57,0.00,,,0.00,Wunderground PWS Mod,2013-05-11 14:02:00,
2013-05-11 08:07:00,50.5,33.5,30.25,NE,47,0.0,2.0,52,0.00,,,0.00,Wunderground PWS Mod,2013-05-11 14:07:00,
2013-05-11 08:12:00,51.3,33.3,30.25,NE,48,1.0,2.0,50,0.00,,,0.00,Wunderground PWS Mod,2013-05-11 14:12:00,
2013-05-11 08:17:00,52.0,32.4,30.28,NE,46,2.0,2.0,47,0.00,,,0.00,Wunderground PWS Mod,2013-05-11 14:17:00,
2013-05-11 08:22:00,53.2,32.4,30.28,NE,46,0.0,1.0,45,0.00,,,0.00,Wunderground PWS Mod,2013-05-11 14:22:00,
2013-05-11 08:27:00,53.6,32.2,30.28,SE,142,1.0,2.0,44,0.00,,,0.00,Wunderground PWS Mod,2013-05-11 14:27:00,
2013-05-11 08:32:00,54.2,32.7,30.27,SSE,160,2.0,2.0,44,0.00,,,0.00,Wunderground PWS Mod,2013-05-11 14:32:00,
2013-05-11 08:37:00,54.8,32.1,30.27,SSE,159,2.0,2.0,42,0.00,,,0.00,Wunderground PWS Mod,2013-05-11 14:37:00,
2013-05-11 08:42:00,55.0,32.3,30.27,South,176,2.0,3.0,42,0.00,,,0.00,Wunderground PWS Mod,2013-05-11 14:42:00,
2013-05-11 08:47:00,54.8,32.1,30.25,South,174,2.0,4.0,42,0.00,,,0.00,Wunderground PWS Mod,2013-05-11 14:47:00,
2013-05-11 08:52:00,54.8,33.3,30.25,South,172,1.0,3.0,44,0.00,,,0.00,Wunderground PWS Mod,2013-05-11 14:52:00,
2013-05-11 08:57:00,55.4,33.3,30.25,South,174,1.0,1.0,43,0.00,,,0.00,Wunderground PWS Mod,2013-05-11 14:57:00,
2013-05-11 09:02:00,55.9,33.1,30.25,SE,127,1.0,2.0,42,0.00,,,0.00,Wunderground PWS Mod,2013-05-11 15:02:00,
2013-05-11 09:07:00,56.5,33.1,30.25,South,179,2.0,2.0,41,0.00,,,0.00,Wunderground PWS Mod,2013-05-11 15:07:00,
2013-05-11 09:12:00,56.2,32.8,30.25,SSW,205,0.0,3.0,41,0.00,,,0.00,Wunderground PWS Mod,2013-05-11 15:12:00,
2013-05-11 09:17:00,56.2,32.8,30.29,South,191,1.0,2.0,41,0.00,,,0.00,Wunderground PWS Mod,2013-05-11 15:17:00,
2013-05-11 09:24:00,56.6,33.8,30.29,SE,143,0.0,2.0,42,0.00,,,0.00,Wunderground PWS Mod,2013-05-11 15:24:00,
2013-05-11 09:29:00,56.6,32.5,30.29,SSW,199,1.0,3.0,40,0.00,,,0.00,Wunderground PWS Mod,2013-05-11 15:29:00,
2013-05-11 09:34:00,56.5,32.4,30.27,WSW,246,2.0,3.0,40,0.00,,,0.00,Wunderground PWS Mod,2013-05-11 15:34:00,
2013-05-11 09:39:00,56.2,32.2,30.27,West,269,1.0,4.0,40,0.00,,,0.00,Wunderground PWS Mod,2013-05-11 15:39:00,
2013-05-11 09:44:00,56.0,32.0,30.27,SW,214,3.0,3.0,40,0.00,,,0.00,Wunderground PWS Mod,2013-05-11 15:44:00,
2013-05-11 09:49:00,56.5,33.1,30.28,SW,217,1.0,4.0,41,0.00,,,0.00,Wunderground PWS Mod,2013-05-11 15:49:00,
2013-05-11 09:54:00,56.9,32.2,30.28,SSE,160,2.0,3.0,39,0.00,,,0.00,Wunderground PWS Mod,2013-05-11 15:54:00,
2013-05-11 10:00:00,56.7,32.6,30.28,West,270,1.0,1.0,40,0.00,,,0.00,Wunderground PWS Mod,2013-05-11 16:00:00,
2013-05-11 10:05:00,57.8,32.3,30.27,SSE,164,2.0,2.0,38,0.00,,,0.00,Wunderground PWS Mod,2013-05-11 16:05:00,
2013-05-11 10:10:00,58.4,32.9,30.27,South,179,1.0,2.0,38,0.00,,,0.00,Wunderground PWS Mod,2013-05-11 16:10:00,
2013-05-11 10:15:00,58.9,33.3,30.27,SSW,207,4.0,6.0,38,0.00,,,0.00,Wunderground PWS Mod,2013-05-11 16:15:00,
2013-05-11 10:20:00,58.9,32.7,30.27,SW,223,3.0,4.0,37,0.00,,,0.00,Wunderground PWS Mod,2013-05-11 16:20:00,
2013-05-11 10:25:00,59.2,32.2,30.27,SW,219,3.0,4.0,36,0.00,,,0.00,Wunderground PWS Mod,2013-05-11 16:25:00,
2013-05-11 10:31:00,59.0,33.4,30.27,SSW,192,2.0,3.0,38,0.00,,,0.00,Wunderground PWS Mod,2013-05-11 16:31:00,
2013-05-11 10:36:00,59.5,32.5,30.27,SSW,200,1.0,3.0,36,0.00,,,0.00,Wunderground PWS Mod,2013-05-11 16:36:00,
2013-05-11 10:41:00,59.9,31.4,30.27,West,269,1.0,2.0,34,0.00,,,0.00,Wunderground PWS Mod,2013-05-11 16:41:00,
2013-05-11 10:46:00,60.2,33.1,30.25,SW,236,2.0,2.0,36,0.00,,,0.00,Wunderground PWS Mod,2013-05-11 16:46:00,
2013-05-11 10:51:00,60.5,32.7,30.25,WSW,242,3.0,3.0,35,0.00,,,0.00,Wunderground PWS Mod,2013-05-11 16:51:00,
2013-05-11 10:56:00,60.4,31.1,30.25,WSW,241,4.0,4.0,33,0.00,,,0.00,Wunderground PWS Mod,2013-05-11 16:56:00,
2013-05-11 11:01:00,60.5,32.0,30.25,SSE,168,0.0,4.0,34,0.00,,,0.00,Wunderground PWS Mod,2013-05-11 17:01:00,
2013-05-11 11:06:00,61.6,31.4,30.25,West,268,4.0,4.0,32,0.00,,,0.00,Wunderground PWS Mod,2013-05-11 17:06:00,
2013-05-11 11:11:00,62.0,31.0,30.25,West,262,0.0,2.0,31,0.00,,,0.00,Wunderground PWS Mod,2013-05-11 17:11:00,
2013-05-11 11:16:00,62.3,30.4,30.25,SW,226,4.0,6.0,30,0.00,,,0.00,Wunderground PWS Mod,2013-05-11 17:16:00,
2013-05-11 11:21:00,62.3,30.4,30.25,WSW,243,9.0,9.0,30,0.00,,,0.00,Wunderground PWS Mod,2013-05-11 17:21:00,
2013-05-11 11:26:00,61.8,29.2,30.25,WSW,252,4.0,5.0,29,0.00,,,0.00,Wunderground PWS Mod,2013-05-11 17:26:00,
2013-05-11 11:31:00,61.8,30.8,30.25,North,352,4.0,7.0,31,0.00,,,0.00,Wunderground PWS Mod,2013-05-11 17:31:00,
2013-05-11 11:36:00,62.0,30.2,30.25,NW,321,2.0,3.0,30,0.00,,,0.00,Wunderground PWS Mod,2013-05-11 17:36:00,
2013-05-11 11:41:00,62.6,30.7,30.25,North,1,1.0,3.0,30,0.00,,,0.00,Wunderground PWS Mod,2013-05-11 17:41:00,
2013-05-11 11:46:00,62.7,29.1,30.24,WNW,285,2.0,6.0,28,0.00,,,0.00,Wunderground PWS Mod,2013-05-11 17:46:00,
2013-05-11 11:51:00,62.4,28.8,30.24,West,269,3.0,3.0,28,0.00,,,0.00,Wunderground PWS Mod,2013-05-11 17:51:00,
2013-05-11 11:56:00,62.1,27.7,30.24,ENE,73,3.0,3.0,27,0.00,,,0.00,Wunderground PWS Mod,2013-05-11 17:56:00,
2013-05-11 12:01:00,63.1,29.4,30.24,West,268,4.0,6.0,28,0.00,,,0.00,Wunderground PWS Mod,2013-05-11 18:01:00,
2013-05-11 12:06:00,62.9,28.4,30.24,NNW,344,1.0,3.0,27,0.00,,,0.00,Wunderground PWS Mod,2013-05-11 18:06:00,
2013-05-11 12:11:00,62.4,28.8,30.24,WNW,285,2.0,3.0,28,0.00,,,0.00,Wunderground PWS Mod,2013-05-11 18:11:00,
2013-05-11 12:16:00,61.8,28.3,30.25,NNW,341,0.0,4.0,28,0.00,,,0.00,Wunderground PWS Mod,2013-05-11 18:16:00,
2013-05-11 12:21:00,61.3,27.0,30.25,NNW,346,2.0,5.0,27,0.00,,,0.00,Wunderground PWS Mod,2013-05-11 18:21:00,
2013-05-11 12:26:00,61.0,28.5,30.25,NNW,338,0.0,5.0,29,0.00,,,0.00,Wunderground PWS Mod,2013-05-11 18:26:00,
2013-05-11 12:31:00,62.0,28.5,30.24,West,262,1.0,3.0,28,0.00,,,0.00,Wunderground PWS Mod,2013-05-11 18:31:00,
2013-05-11 12:36:00,63.1,29.4,30.24,West,274,5.0,6.0,28,0.00,,,0.00,Wunderground PWS Mod,2013-05-11 18:36:00,
2013-05-11 12:41:00,63.7,29.1,30.24,South,174,6.0,11.0,27,0.00,,,0.00,Wunderground PWS Mod,2013-05-11 18:41:00,
2013-05-11 12:46:00,64.2,29.5,30.22,WNW,282,2.0,5.0,27,0.00,,,0.00,Wunderground PWS Mod,2013-05-11 18:46:00,
2013-05-11 12:51:00,64.8,29.1,30.22,SSW,203,2.0,4.0,26,0.00,,,0.00,Wunderground PWS Mod,2013-05-11 18:51:00,
2013-05-11 12:56:00,65.2,29.4,30.22,WSW,248,2.0,5.0,26,0.00,,,0.00,Wunderground PWS Mod,2013-05-11 18:56:00,
2013-05-11 13:01:00,65.3,27.5,30.22,SE,124,1.0,5.0,24,0.00,,,0.00,Wunderground PWS Mod,2013-05-11 19:01:00,
2013-05-11 13:06:00,65.8,29.0,30.22,SW,230,7.0,10.0,25,0.00,,,0.00,Wunderground PWS Mod,2013-05-11 19:06:00,
2013-05-11 13:11:00,66.4,29.5,30.22,SW,236,6.0,9.0,25,0.00,,,0.00,Wunderground PWS Mod,2013-05-11 19:11:00,
2013-05-11 13:14:00,66.1,28.2,30.22,WSW,248,5.0,7.0,24,0.00,,,0.00,Wunderground PWS Mod,2013-05-11 19:14:00,
2013-05-11 13:16:00,66.0,29.1,30.20,NNW,328,3.0,4.0,25,0.00,,,0.00,Wunderground PWS Mod,2013-05-11 19:16:00,
2013-05-11 13:21:00,66.0,30.1,30.20,North,358,3.0,5.0,26,0.00,,,0.00,Wunderground PWS Mod,2013-05-11 19:21:00,
2013-05-11 13:26:00,66.6,30.6,30.20,NNW,332,3.0,7.0,26,0.00,,,0.00,Wunderground PWS Mod,2013-05-11 19:26:00,
2013-05-11 13:31:00,67.3,30.2,30.18,West,279,5.0,10.0,25,0.00,,,0.00,Wunderground PWS Mod,2013-05-11 19:31:00,
2013-05-11 13:36:00,67.8,28.6,30.18,WSW,249,7.0,11.0,23,0.00,,,0.00,Wunderground PWS Mod,2013-05-11 19:36:00,
2013-05-11 13:41:00,67.8,29.7,30.18,West,262,6.0,10.0,24,0.00,,,0.00,Wunderground PWS Mod,2013-05-11 19:41:00,
2013-05-11 13:46:00,66.4,28.5,30.17,West,271,5.0,9.0,24,0.00,,,0.00,Wunderground PWS Mod,2013-05-11 19:46:00,
2013-05-11 13:51:00,66.1,26.1,30.17,West,272,3.0,8.0,22,0.00,,,0.00,Wunderground PWS Mod,2013-05-11 19:51:00,
2013-05-11 13:56:00,66.3,27.4,30.17,WSW,245,7.0,9.0,23,0.00,,,0.00,Wunderground PWS Mod,2013-05-11 19:56:00,
2013-05-11 14:01:00,65.2,25.4,30.19,WSW,254,6.0,10.0,22,0.00,,,0.00,Wunderground PWS Mod,2013-05-11 20:01:00,
2013-05-11 14:06:00,64.5,25.8,30.19,WSW,239,4.0,5.0,23,0.00,,,0.00,Wunderground PWS Mod,2013-05-11 20:06:00,
2013-05-11 14:11:00,64.7,28.0,30.19,WSW,255,2.0,6.0,25,0.00,,,0.00,Wunderground PWS Mod,2013-05-11 20:11:00,
2013-05-11 14:16:00,65.0,26.3,30.20,WNW,300,6.0,11.0,23,0.00,,,0.00,Wunderground PWS Mod,2013-05-11 20:16:00,
2013-05-11 14:21:00,64.0,28.4,30.20,WSW,250,4.0,10.0,26,0.00,,,0.00,Wunderground PWS Mod,2013-05-11 20:21:00,
2013-05-11 14:26:00,63.9,30.1,30.20,SSW,211,2.0,8.0,28,0.00,,,0.00,Wunderground PWS Mod,2013-05-11 20:26:00,
2013-05-11 14:31:00,64.8,30.0,30.19,West,274,2.0,5.0,27,0.00,,,0.00,Wunderground PWS Mod,2013-05-11 20:31:00,
2013-05-11 14:36:00,65.2,28.5,30.19,SW,225,4.0,4.0,25,0.00,,,0.00,Wunderground PWS Mod,2013-05-11 20:36:00,
2013-05-11 14:42:00,64.7,29.9,30.19,SSW,207,3.0,10.0,27,0.00,,,0.00,Wunderground PWS Mod,2013-05-11 20:42:00,
2013-05-11 14:47:00,63.7,30.0,30.20,WNW,283,2.0,14.0,28,0.00,,,0.00,Wunderground PWS Mod,2013-05-11 20:47:00,
2013-05-11 14:52:00,63.2,28.6,30.20,WNW,283,3.0,5.0,27,0.00,,,0.00,Wunderground PWS Mod,2013-05-11 20:52:00,
2013-05-11 14:57:00,62.6,29.0,30.20,West,268,4.0,14.0,28,0.00,,,0.00,Wunderground PWS Mod,2013-05-11 20:57:00,
2013-05-11 15:02:00,61.8,30.0,30.22,SW,233,5.0,9.0,30,0.00,,,0.00,Wunderground PWS Mod,2013-05-11 21:02:00,
2013-05-11 15:07:00,61.2,29.5,30.22,West,273,4.0,10.0,30,0.00,,,0.00,Wunderground PWS Mod,2013-05-11 21:07:00,
2013-05-11 15:12:00,60.9,29.2,30.22,West,259,2.0,5.0,30,0.00,,,0.00,Wunderground PWS Mod,2013-05-11 21:12:00,
2013-05-11 15:17:00,61.5,30.6,30.21,West,281,4.0,5.0,31,0.00,,,0.00,Wunderground PWS Mod,2013-05-11 21:17:00,
2013-05-11 15:22:00,63.2,30.4,30.21,SW,225,4.0,10.0,29,0.00,,,0.00,Wunderground PWS Mod,2013-05-11 21:22:00,
2013-05-11 15:27:00,64.8,29.1,30.21,West,276,7.0,11.0,26,0.00,,,0.00,Wunderground PWS Mod,2013-05-11 21:27:00,
2013-05-11 15:32:00,65.3,29.5,30.18,West,259,2.0,7.0,26,0.00,,,0.00,Wunderground PWS Mod,2013-05-11 21:32:00,
2013-05-11 15:37:00,65.6,30.7,30.18,WSW,255,2.0,9.0,27,0.00,,,0.00,Wunderground PWS Mod,2013-05-11 21:37:00,
2013-05-11 15:42:00,65.5,29.7,30.18,West,262,3.0,7.0,26,0.00,,,0.00,Wunderground PWS Mod,2013-05-11 21:42:00,
2013-05-11 15:47:00,65.0,29.2,30.18,SSW,210,1.0,5.0,26,0.00,,,0.00,Wunderground PWS Mod,2013-05-11 21:47:00,
2013-05-11 15:52:00,65.3,28.5,30.18,NNW,347,3.0,7.0,25,0.00,,,0.00,Wunderground PWS Mod,2013-05-11 21:52:00,
2013-05-11 15:57:00,65.8,29.9,30.18,South,183,6.0,10.0,26,0.00,,,0.00,Wunderground PWS Mod,2013-05-11 21:57:00,
2013-05-11 16:02:00,65.8,29.0,30.17,SW,220,2.0,9.0,25,0.00,,,0.00,Wunderground PWS Mod,2013-05-11 22:02:00,
2013-05-11 16:07:00,66.6,29.6,30.17,SSW,209,3.0,12.0,25,0.00,,,0.00,Wunderground PWS Mod,2013-05-11 22:07:00,
2013-05-11 16:08:00,66.6,29.6,30.17,West,270,6.0,10.0,25,0.00,,,0.00,Wunderground PWS Mod,2013-05-11 22:08:00,
2013-05-11 16:12:00,66.3,30.4,30.17,NW,321,6.0,7.0,26,0.00,,,0.00,Wunderground PWS Mod,2013-05-11 22:12:00,
2013-05-11 16:17:00,66.9,28.9,30.17,WSW,248,5.0,14.0,24,0.00,,,0.00,Wunderground PWS Mod,2013-05-11 22:17:00,
2013-05-11 16:22:00,66.6,27.6,30.17,SW,235,5.0,12.0,23,0.00,,,0.00,Wunderground PWS Mod,2013-05-11 22:22:00,
2013-05-11 16:27:00,65.6,29.8,30.17,West,267,2.0,10.0,26,0.00,,,0.00,Wunderground PWS Mod,2013-05-11 22:27:00,
2013-05-11 16:32:00,65.3,27.5,30.19,SSE,162,2.0,10.0,24,0.00,,,0.00,Wunderground PWS Mod,2013-05-11 22:32:00,
2013-05-11 16:37:00,65.8,33.5,30.19,SE,146,3.0,4.0,30,0.00,,,0.00,Wunderground PWS Mod,2013-05-11 22:37:00,
2013-05-11 16:42:00,65.6,33.3,30.19,SE,129,2.0,4.0,30,0.00,,,0.00,Wunderground PWS Mod,2013-05-11 22:42:00,
2013-05-11 16:47:00,63.5,33.9,30.19,South,184,5.0,11.0,33,0.00,,,0.00,Wunderground PWS Mod,2013-05-11 22:47:00,
2013-05-11 16:52:00,62.1,34.8,30.19,SE,127,4.0,9.0,36,0.00,,,0.00,Wunderground PWS Mod,2013-05-11 22:52:00,
2013-05-11 16:57:00,60.7,32.9,30.19,East,101,2.0,6.0,35,0.00,,,0.00,Wunderground PWS Mod,2013-05-11 22:57:00,
2013-05-11 17:02:00,60.4,34.7,30.22,SSE,155,3.0,4.0,38,0.00,,,0.00,Wunderground PWS Mod,2013-05-11 23:02:00,
2013-05-11 17:07:00,60.1,35.0,30.22,ESE,121,2.0,6.0,39,0.00,,,0.00,Wunderground PWS Mod,2013-05-11 23:07:00,
2013-05-11 17:12:00,59.9,34.2,30.22,ESE,116,3.0,5.0,38,0.00,,,0.00,Wunderground PWS Mod,2013-05-11 23:12:00,
2013-05-11 17:17:00,60.2,33.8,30.24,SE,136,3.0,4.0,37,0.00,,,0.00,Wunderground PWS Mod,2013-05-11 23:17:00,
2013-05-11 17:22:00,61.0,33.8,30.24,SE,135,3.0,7.0,36,0.00,,,0.00,Wunderground PWS Mod,2013-05-11 23:22:00,
2013-05-11 17:27:00,61.8,32.4,30.24,SE,141,3.0,4.0,33,0.00,,,0.00,Wunderground PWS Mod,2013-05-11 23:27:00,
2013-05-11 17:32:00,62.0,33.3,30.22,South,189,4.0,9.0,34,0.00,,,0.00,Wunderground PWS Mod,2013-05-11 23:32:00,
2013-05-11 17:37:00,61.5,32.8,30.22,SE,139,8.0,8.0,34,0.00,,,0.00,Wunderground PWS Mod,2013-05-11 23:37:00,
2013-05-11 17:42:00,60.9,32.3,30.22,SSE,149,6.0,10.0,34,0.00,,,0.00,Wunderground PWS Mod,2013-05-11 23:42:00,
2013-05-11 17:47:00,61.6,31.4,30.23,SW,220,3.0,10.0,32,0.00,,,0.00,Wunderground PWS Mod,2013-05-11 23:47:00,
2013-05-11 17:52:00,62.4,30.5,30.23,SE,134,2.0,5.0,30,0.00,,,0.00,Wunderground PWS Mod,2013-05-11 23:52:00,
2013-05-11 17:57:00,62.6,30.7,30.23,SSE,153,4.0,9.0,30,0.00,,,0.00,Wunderground PWS Mod,2013-05-11 23:57:00,
2013-05-11 18:02:00,62.3,31.3,30.22,SSE,158,4.0,6.0,31,0.00,,,0.00,Wunderground PWS Mod,2013-05-12 00:02:00,
2013-05-11 18:07:00,62.6,30.7,30.22,SSE,152,4.0,10.0,30,0.00,,,0.00,Wunderground PWS Mod,2013-05-12 00:07:00,
2013-05-11 18:12:00,63.1,30.3,30.22,SE,131,3.0,5.0,29,0.00,,,0.00,Wunderground PWS Mod,2013-05-12 00:12:00,
2013-05-11 18:17:00,63.2,31.2,30.18,SE,136,3.0,6.0,30,0.00,,,0.00,Wunderground PWS Mod,2013-05-12 00:17:00,
2013-05-11 18:22:00,63.4,30.6,30.18,South,179,5.0,6.0,29,0.00,,,0.00,Wunderground PWS Mod,2013-05-12 00:22:00,
2013-05-11 18:28:00,63.4,30.6,30.18,South,169,4.0,6.0,29,0.00,,,0.00,Wunderground PWS Mod,2013-05-12 00:28:00,
2013-05-11 18:33:00,62.7,30.8,30.18,SSE,156,4.0,5.0,30,0.00,,,0.00,Wunderground PWS Mod,2013-05-12 00:33:00,
2013-05-11 18:38:00,62.1,31.1,30.18,ESE,118,2.0,4.0,31,0.00,,,0.00,Wunderground PWS Mod,2013-05-12 00:38:00,
2013-05-11 18:44:00,61.8,30.8,30.18,SSE,150,1.0,3.0,31,0.00,,,0.00,Wunderground PWS Mod,2013-05-12 00:44:00,
2013-05-11 18:49:00,61.6,30.6,30.19,SE,131,2.0,2.0,31,0.00,,,0.00,Wunderground PWS Mod,2013-05-12 00:49:00,
2013-05-11 18:54:00,61.6,31.4,30.19,East,87,2.0,2.0,32,0.00,,,0.00,Wunderground PWS Mod,2013-05-12 00:54:00,
2013-05-11 18:59:00,61.5,31.3,30.19,ENE,66,3.0,3.0,32,0.00,,,0.00,Wunderground PWS Mod,2013-05-12 00:59:00,
2013-05-11 19:04:00,61.0,32.4,30.20,NNE,23,6.0,13.0,34,0.00,,,0.00,Wunderground PWS Mod,2013-05-12 01:04:00,
2013-05-11 19:09:00,59.6,32.6,30.20,ENE,61,18.0,19.0,36,0.00,,,0.00,Wunderground PWS Mod,2013-05-12 01:09:00,
2013-05-11 19:14:00,57.5,35.7,30.20,NE,35,7.0,21.0,44,0.00,,,0.00,Wunderground PWS Mod,2013-05-12 01:14:00,
2013-05-11 19:20:00,56.9,35.2,30.15,NE,34,7.0,10.0,44,0.00,,,0.00,Wunderground PWS Mod,2013-05-12 01:20:00,
2013-05-11 19:25:00,56.3,36.8,30.15,NE,41,10.0,13.0,48,0.00,,,0.00,Wunderground PWS Mod,2013-05-12 01:25:00,
2013-05-11 19:30:00,55.0,37.7,30.18,NE,37,8.0,12.0,52,0.00,,,0.00,Wunderground PWS Mod,2013-05-12 01:30:00,
2013-05-11 19:35:00,55.7,36.3,30.18,NE,54,3.0,7.0,48,0.00,,,0.00,Wunderground PWS Mod,2013-05-12 01:35:00,
2013-05-11 19:40:00,55.9,36.5,30.18,ENE,58,2.0,5.0,48,0.00,,,0.00,Wunderground PWS Mod,2013-05-12 01:40:00,
2013-05-11 19:45:00,55.9,35.9,30.16,East,85,0.0,2.0,47,0.00,,,0.00,Wunderground PWS Mod,2013-05-12 01:45:00,
2013-05-11 19:50:00,56.2,35.7,30.16,ESE,103,0.0,1.0,46,0.00,,,0.00,Wunderground PWS Mod,2013-05-12 01:50:00,
2013-05-11 19:55:00,56.3,37.4,30.16,NE,46,1.0,3.0,49,0.00,,,0.00,Wunderground PWS Mod,2013-05-12 01:55:00,
2013-05-11 20:00:00,56.2,37.8,30.17,NE,46,2.0,4.0,50,0.00,,,0.00,Wunderground PWS Mod,2013-05-12 02:00:00,
2013-05-11 20:05:00,56.2,37.8,30.17,NNE,29,3.0,4.0,50,0.00,,,0.00,Wunderground PWS Mod,2013-05-12 02:05:00,
2013-05-11 20:10:00,55.4,38.5,30.17,NE,37,3.0,5.0,53,0.00,,,0.00,Wunderground PWS Mod,2013-05-12 02:10:00,
2013-05-11 20:15:00,54.5,38.7,30.15,NE,54,3.0,4.0,55,0.00,,,0.00,Wunderground PWS Mod,2013-05-12 02:15:00,
2013-05-11 20:20:00,53.9,39.9,30.15,North,3,7.0,7.0,59,0.00,,,0.00,Wunderground PWS Mod,2013-05-12 02:20:00,
2013-05-11 20:25:00,53.1,38.7,30.15,NE,44,5.0,5.0,58,0.00,,,0.00,Wunderground PWS Mod,2013-05-12 02:25:00,
2013-05-11 20:30:00,52.5,39.0,30.16,NE,51,2.0,3.0,60,0.00,,,0.00,Wunderground PWS Mod,2013-05-12 02:30:00,
2013-05-11 20:35:00,51.9,38.0,30.16,ENE,60,1.0,3.0,59,0.00,,,0.00,Wunderground PWS Mod,2013-05-12 02:35:00,
2013-05-11 20:40:00,51.7,38.7,30.16,NE,56,2.0,2.0,61,0.00,,,0.00,Wunderground PWS Mod,2013-05-12 02:40:00,
2013-05-11 20:45:00,51.1,38.5,30.18,NE,51,3.0,3.0,62,0.00,,,0.00,Wunderground PWS Mod,2013-05-12 02:45:00,
2013-05-11 20:50:00,50.8,39.1,30.18,NE,37,2.0,3.0,64,0.00,,,0.00,Wunderground PWS Mod,2013-05-12 02:50:00,
2013-05-11 20:55:00,50.4,39.1,30.18,NE,42,3.0,3.0,65,0.00,,,0.00,Wunderground PWS Mod,2013-05-12 02:55:00,
2013-05-11 21:00:00,49.9,39.0,30.18,NE,44,1.0,2.0,66,0.00,,,0.00,Wunderground PWS Mod,2013-05-12 03:00:00,
2013-05-11 21:05:00,49.5,39.0,30.18,NE,44,1.0,3.0,67,0.00,,,0.00,Wunderground PWS Mod,2013-05-12 03:05:00,
2013-05-11 21:10:00,48.9,38.8,30.18,NE,51,3.0,3.0,68,0.00,,,0.00,Wunderground PWS Mod,2013-05-12 03:10:00,
2013-05-11 21:16:00,48.2,38.9,30.18,NE,48,2.0,3.0,70,0.00,,,0.00,Wunderground PWS Mod,2013-05-12 03:16:00,
2013-05-11 21:21:00,47.9,38.9,30.18,NE,45,3.0,3.0,71,0.00,,,0.00,Wunderground PWS Mod,2013-05-12 03:21:00,
2013-05-11 21:26:00,47.6,38.7,30.18,NE,43,2.0,3.0,71,0.00,,,0.00,Wunderground PWS Mod,2013-05-12 03:26:00,
2013-05-11 21:31:00,47.6,38.7,30.18,NE,51,2.0,4.0,71,0.00,,,0.00,Wunderground PWS Mod,2013-05-12 03:31:00,
2013-05-11 21:36:00,47.4,38.5,30.18,NE,40,2.0,3.0,71,0.00,,,0.00,Wunderground PWS Mod,2013-05-12 03:36:00,
2013-05-11 21:41:00,47.3,38.4,30.18,NE,39,2.0,2.0,71,0.00,,,0.00,Wunderground PWS Mod,2013-05-12 03:41:00,
2013-05-11 21:46:00,47.1,38.2,30.20,NE,44,2.0,2.0,71,0.00,,,0.00,Wunderground PWS Mod,2013-05-12 03:46:00,
2013-05-11 21:51:00,46.8,37.9,30.20,NE,44,2.0,3.0,71,0.00,,,0.00,Wunderground PWS Mod,2013-05-12 03:51:00,
2013-05-11 21:56:00,46.7,37.8,30.20,NE,39,2.0,3.0,71,0.00,,,0.00,Wunderground PWS Mod,2013-05-12 03:56:00,
2013-05-11 22:01:00,46.5,38.0,30.20,NE,34,2.0,3.0,72,0.00,,,0.00,Wunderground PWS Mod,2013-05-12 04:01:00,
2013-05-11 22:06:00,46.2,37.7,30.20,NE,37,2.0,4.0,72,0.00,,,0.00,Wunderground PWS Mod,2013-05-12 04:06:00,
2013-05-11 22:11:00,46.1,37.6,30.20,NE,41,2.0,4.0,72,0.00,,,0.00,Wunderground PWS Mod,2013-05-12 04:11:00,
2013-05-11 22:16:00,46.0,37.5,30.19,NE,37,2.0,3.0,72,0.00,,,0.00,Wunderground PWS Mod,2013-05-12 04:16:00,
2013-05-11 22:21:00,46.0,37.5,30.19,NE,42,2.0,3.0,72,0.00,,,0.00,Wunderground PWS Mod,2013-05-12 04:21:00,
2013-05-11 22:26:00,45.7,37.2,30.19,NE,41,2.0,3.0,72,0.00,,,0.00,Wunderground PWS Mod,2013-05-12 04:26:00,
2013-05-11 22:31:00,45.5,37.0,30.19,NE,41,2.0,3.0,72,0.00,,,0.00,Wunderground PWS Mod,2013-05-12 04:31:00,
2013-05-11 22:36:00,45.4,36.9,30.19,NE,41,2.0,3.0,72,0.00,,,0.00,Wunderground PWS Mod,2013-05-12 04:36:00,
2013-05-11 22:41:00,45.4,36.9,30.19,NE,44,3.0,3.0,72,0.00,,,0.00,Wunderground PWS Mod,2013-05-12 04:41:00,
2013-05-11 22:46:00,44.9,36.8,30.19,ENE,65,2.0,4.0,73,0.00,,,0.00,Wunderground PWS Mod,2013-05-12 04:46:00,
2013-05-11 22:51:00,44.6,36.8,30.19,NE,49,3.0,4.0,74,0.00,,,0.00,Wunderground PWS Mod,2013-05-12 04:51:00,
2013-05-11 22:56:00,44.5,36.7,30.19,NE,49,2.0,3.0,74,0.00,,,0.00,Wunderground PWS Mod,2013-05-12 04:56:00,
2013-05-11 23:01:00,44.2,36.4,30.21,NE,40,2.0,3.0,74,0.00,,,0.00,Wunderground PWS Mod,2013-05-12 05:01:00,
2013-05-11 23:06:00,44.2,36.4,30.21,NE,41,2.0,3.0,74,0.00,,,0.00,Wunderground PWS Mod,2013-05-12 05:06:00,
2013-05-11 23:11:00,44.1,36.3,30.21,ENE,65,1.0,4.0,74,0.00,,,0.00,Wunderground PWS Mod,2013-05-12 05:11:00,
2013-05-11 23:16:00,43.9,36.5,30.20,NE,47,3.0,4.0,75,0.00,,,0.00,Wunderground PWS Mod,2013-05-12 05:16:00,
2013-05-11 23:21:00,43.8,36.4,30.20,NE,39,2.0,4.0,75,0.00,,,0.00,Wunderground PWS Mod,2013-05-12 05:21:00,
2013-05-11 23:26:00,43.8,36.4,30.20,NE,56,3.0,3.0,75,0.00,,,0.00,Wunderground PWS Mod,2013-05-12 05:26:00,
2013-05-11 23:31:00,43.5,36.1,30.20,ENE,64,3.0,3.0,75,0.00,,,0.00,Wunderground PWS Mod,2013-05-12 05:31:00,
2013-05-11 23:36:00,43.3,36.2,30.20,ENE,57,2.0,4.0,76,0.00,,,0.00,Wunderground PWS Mod,2013-05-12 05:36:00,
2013-05-11 23:41:00,43.5,36.1,30.20,NE,44,2.0,4.0,75,0.00,,,0.00,Wunderground PWS Mod,2013-05-12 05:41:00,
2013-05-11 23:46:00,43.9,35.8,30.20,NE,45,2.0,4.0,73,0.00,,,0.00,Wunderground PWS Mod,2013-05-12 05:46:00,
2013-05-11 23:51:00,44.1,36.0,30.20,NE,46,2.0,3.0,73,0.00,,,0.00,Wunderground PWS Mod,2013-05-12 05:51:00,
2013-05-11 23:56:00,43.8,35.7,30.20,NE,46,2.0,3.0,73,0.00,,,0.00,Wunderground PWS Mod,2013-05-12 05:56:00,